Broken Arrow, OK (74012)

10:37 AM CST on December 05, 2016 (GMT -0600)
Country Aire | | Change Station

Elev 697 ft 36.05 °N, 95.82 °W | Updated 3 seconds ago

Overcast
Overcast
40.2 °F
Feels Like 40 °F
N
2.0
Wind Variable Wind from SSW
Gusts 9.0 mph

Today
High -- | Low -- °F
--% Chance of Precip.
Yesterday
High -- | Low -- °F
Precip. -- in
Pressure 29.94 in
Visibility 6.0 miles
Clouds Overcast 200 ft
Windchill 40 °F
Dew Point 39 °F
Humidity 96%
Rainfall 0.00 in
Snow Depth Not available.
7:19 AM 5:08 PM
Waxing Crescent, 33% visible
SPECI KRVS 051611Z 16004KT 6SM BR OVC002 04/03 A2994 RMK AO2 T00390028
Pressure 29.94 in
Visibility 6.0 miles
Clouds Overcast 200 ft
Windchill 40 °F
Dew Point 39 °F
Humidity 96%
Rainfall 0.00 in
Snow Depth Not available.
7:19 AM 5:08 PM
Waxing Crescent, 33% visible
SPECI KRVS 051611Z 16004KT 6SM BR OVC002 04/03 A2994 RMK AO2 T00390028

10-Day Weather Forecast

Almanac

Astronomy

Dec. 05, 2016 Rise Set
Actual Time
Civil Twilight
Nautical Twilight
Astronomical Twilight
Moon
Length of Visible Light
Length of Day
Tomorrow will be .
, % of the Moon is Illuminated

Today's Extremes

State Highs State Lows

Community

WunderPhotos

Upload Photos

1,955,819 photos uploaded!

WunderBlog® & News

Nearby

Air Quality

  Air Quality AQ Index Pollutant
Not available.

Snow Depth

Station Depth Elevation

Earthquake Activity

City Distance Mag. Time & Date
Minimum magnitude displayed is 2.5.

Coastal Water Temperatures

Place Temperature

Stations

Nearby Weather Stations

Station Location Temp. Windchill Dew Point Humidity Wind Precip. Elev Updated Type
                   

Watches & Warnings

There are currently no watches in effect.